createdAt,value
2022-11-24T00:01:18.192Z,1.30
2022-11-24T00:04:05.757Z,1.42
2022-11-24T00:06:51.134Z,2.00
2022-11-24T00:09:36.612Z,1.10
2022-11-24T00:12:22.158Z,1.58
2022-11-24T00:15:07.938Z,1.75
2022-11-24T00:17:53.901Z,1.58
2022-11-24T00:20:39.317Z,1.83
2022-11-24T00:23:25.225Z,1.60
2022-11-24T00:26:34.732Z,2.42
2022-11-24T00:29:20.303Z,1.83
2022-11-24T00:32:08.380Z,2.35
2022-11-24T00:34:53.629Z,2.55
2022-11-24T00:37:39.262Z,2.97
2022-11-24T00:40:24.766Z,2.83
2022-11-24T00:43:10.200Z,2.25
2022-11-24T00:45:56.028Z,3.15
2022-11-24T00:48:41.474Z,3.50
2022-11-24T00:51:29.742Z,1.83
2022-11-24T00:54:15.360Z,3.95
2022-11-24T00:57:01.051Z,2.42
2022-11-24T00:59:46.507Z,2.95
2022-11-24T01:02:32.102Z,3.17
2022-11-24T01:05:17.623Z,2.75
2022-11-24T01:08:03.035Z,2.15
2022-11-24T01:10:48.664Z,2.35
2022-11-24T01:13:34.248Z,2.55
2022-11-24T01:16:30.307Z,2.42
2022-11-24T01:19:16.159Z,2.65
2022-11-24T01:22:01.536Z,2.30
2022-11-24T01:24:47.002Z,2.10
2022-11-24T01:27:33.012Z,2.05
2022-11-24T01:30:18.349Z,2.55
2022-11-24T01:33:04.014Z,3.15
2022-11-24T01:35:49.344Z,2.70
2022-11-24T01:38:35.104Z,3.17
2022-11-24T01:41:23.320Z,2.20
2022-11-24T01:44:26.916Z,2.35
2022-11-24T01:50:01.873Z,2.38
2022-11-24T01:52:54.017Z,2.90
2022-11-24T01:55:40.246Z,3.08
2022-11-24T01:59:00.422Z,2.45
2022-11-24T02:01:48.578Z,2.05
2022-11-24T02:04:35.766Z,2.00
2022-11-24T02:07:27.531Z,1.63
2022-11-24T02:10:33.191Z,1.58
2022-11-24T02:13:20.720Z,1.38
2022-11-24T02:16:12.153Z,1.88
2022-11-24T02:18:57.789Z,1.70
2022-11-24T02:21:43.108Z,2.30
2022-11-24T02:25:09.856Z,1.27
2022-11-24T02:27:58.150Z,1.20
2022-11-24T02:30:44.944Z,1.50
2022-11-24T02:33:31.066Z,2.20
2022-11-24T02:36:16.970Z,2.33
2022-11-24T02:39:02.128Z,2.40
2022-11-24T02:42:03.965Z,1.80
2022-11-24T02:44:53.898Z,2.28
2022-11-24T02:47:39.230Z,2.20
2022-11-24T02:50:24.671Z,2.35
2022-11-24T02:53:11.081Z,2.75
2022-11-24T02:55:57.072Z,3.20
2022-11-24T02:58:43.382Z,2.50
2022-11-24T03:01:29.327Z,2.95
2022-11-24T03:04:14.903Z,3.13
2022-11-24T03:07:01.443Z,2.55
2022-11-24T03:09:48.071Z,3.08
2022-11-24T03:12:34.424Z,3.08
2022-11-24T03:15:20.293Z,3.30
2022-11-24T03:18:06.669Z,2.05
2022-11-24T03:20:52.319Z,1.95
2022-11-24T03:23:37.645Z,3.00
2022-11-24T03:26:25.407Z,2.47
2022-11-24T03:29:10.914Z,3.15
2022-11-24T03:31:56.394Z,3.45
2022-11-24T03:34:41.968Z,2.20
2022-11-24T03:37:28.217Z,2.65
2022-11-24T03:40:13.428Z,4.85
2022-11-24T03:42:59.118Z,2.83
2022-11-24T03:45:48.707Z,2.80
2022-11-24T03:48:34.112Z,3.17
2022-11-24T03:51:19.641Z,3.53
2022-11-24T03:54:05.241Z,3.28
2022-11-24T03:56:50.583Z,3.05
2022-11-24T03:59:36.016Z,2.53
2022-11-24T04:02:21.350Z,2.75
2022-11-24T04:05:07.172Z,3.25
2022-11-24T04:07:56.546Z,2.67
2022-11-24T04:10:42.777Z,2.72
2022-11-24T04:13:28.828Z,3.10
2022-11-24T04:16:16.627Z,2.60
2022-11-24T04:19:03.680Z,3.50
2022-11-24T04:21:49.363Z,2.53
2022-11-24T04:24:35.388Z,2.92
2022-11-24T04:27:21.485Z,3.20
2022-11-24T04:30:07.895Z,2.75
2022-11-24T04:32:53.430Z,3.13
2022-11-24T04:35:38.724Z,4.57
2022-11-24T04:39:25.819Z,2.67
2022-11-24T04:41:29.822Z,2.97
2022-11-24T04:44:15.314Z,3.63
2022-11-24T04:47:01.429Z,3.03
2022-11-24T04:49:49.891Z,3.50
2022-11-24T04:52:35.201Z,3.58
2022-11-24T04:55:20.777Z,2.90
2022-11-24T04:58:11.059Z,3.83
2022-11-24T05:00:56.274Z,4.50
2022-11-24T05:03:41.835Z,3.70
2022-11-24T05:06:27.263Z,2.63
2022-11-24T05:09:16.055Z,3.78
2022-11-24T05:12:01.954Z,4.60
2022-11-24T05:14:47.354Z,5.25
2022-11-24T05:17:35.648Z,3.45
2022-11-24T05:20:21.559Z,2.80
2022-11-24T05:23:08.183Z,3.70
2022-11-24T05:25:53.659Z,3.92
2022-11-24T05:28:39.031Z,3.78
2022-11-24T05:31:24.499Z,3.28
2022-11-24T05:34:10.125Z,4.35
2022-11-24T05:36:56.559Z,3.28
2022-11-24T05:39:42.054Z,3.63
2022-11-24T05:42:47.051Z,3.20
2022-11-24T05:45:33.002Z,3.67
2022-11-24T05:48:18.488Z,5.35
2022-11-24T05:51:07.950Z,3.10
2022-11-24T05:53:54.984Z,5.72
2022-11-24T05:56:40.422Z,4.55
2022-11-24T05:59:25.957Z,4.30
2022-11-24T06:02:12.026Z,4.25
2022-11-24T06:04:57.620Z,4.28
2022-11-24T06:07:43.669Z,4.80
2022-11-24T06:10:29.393Z,3.70
2022-11-24T06:13:14.779Z,3.75
2022-11-24T06:16:00.422Z,3.17
2022-11-24T06:18:45.902Z,4.15
2022-11-24T06:21:31.887Z,3.60
2022-11-24T06:24:17.138Z,5.22
2022-11-24T06:27:02.835Z,4.38
2022-11-24T06:29:48.401Z,5.38
2022-11-24T06:32:34.131Z,3.20
2022-11-24T06:35:19.708Z,3.55
2022-11-24T06:38:05.623Z,5.82
2022-11-24T06:41:02.388Z,3.95
2022-11-24T06:43:48.005Z,4.53
2022-11-24T06:46:33.754Z,4.28
2022-11-24T06:49:19.280Z,3.58
2022-11-24T06:52:04.677Z,5.07
2022-11-24T06:54:50.025Z,3.95
2022-11-24T06:57:35.443Z,4.53
2022-11-24T07:00:21.101Z,3.72
2022-11-24T07:03:06.449Z,5.10
2022-11-24T07:05:58.620Z,3.95
2022-11-24T07:08:44.936Z,4.93
2022-11-24T07:11:30.309Z,4.82
2022-11-24T07:14:15.802Z,3.75
2022-11-24T07:17:02.642Z,4.32
2022-11-24T07:19:48.246Z,4.35
2022-11-24T07:22:33.910Z,4.90
2022-11-24T07:25:19.139Z,3.83
2022-11-24T07:28:05.408Z,4.80
2022-11-24T07:30:50.960Z,5.43
2022-11-24T07:33:36.867Z,4.50
2022-11-24T07:36:23.590Z,5.07
2022-11-24T07:39:08.776Z,4.05
2022-11-24T07:41:54.286Z,4.22
2022-11-24T07:44:40.722Z,3.35
2022-11-24T07:47:26.138Z,5.22
2022-11-24T07:50:12.683Z,3.65
2022-11-24T07:53:03.126Z,5.47
2022-11-24T07:55:56.079Z,5.95
2022-11-24T07:58:41.709Z,4.75
2022-11-24T08:01:27.268Z,3.90
2022-11-24T08:04:12.951Z,3.97
2022-11-24T08:06:58.678Z,4.80
2022-11-24T08:09:44.084Z,7.43
2022-11-24T08:12:29.793Z,6.78
2022-11-24T08:15:15.258Z,5.50
2022-11-24T08:18:01.658Z,5.78
2022-11-24T08:20:47.066Z,5.82
2022-11-24T08:23:33.029Z,4.20
2022-11-24T08:26:19.366Z,4.55
2022-11-24T08:29:05.145Z,5.57
2022-11-24T08:31:50.746Z,3.92
2022-11-24T08:34:36.875Z,3.88
2022-11-24T08:37:22.243Z,4.45
2022-11-24T08:40:08.643Z,4.90
2022-11-24T08:42:58.264Z,4.03
2022-11-24T08:45:44.625Z,5.25
2022-11-24T08:48:30.731Z,4.45
2022-11-24T08:51:18.757Z,3.70
2022-11-24T08:54:04.149Z,4.55
2022-11-24T08:56:49.630Z,5.13
2022-11-24T08:59:35.141Z,5.25
2022-11-24T09:02:20.493Z,5.60
2022-11-24T09:05:22.480Z,4.03
2022-11-24T09:08:11.667Z,6.43
2022-11-24T09:11:02.062Z,4.10
2022-11-24T09:13:47.939Z,5.88
2022-11-24T09:16:33.572Z,5.22
2022-11-24T09:19:18.928Z,3.92
2022-11-24T09:22:04.432Z,4.72
2022-11-24T09:24:49.959Z,5.50
2022-11-24T09:27:36.155Z,5.45
2022-11-24T09:30:21.484Z,4.32
2022-11-24T09:33:06.853Z,5.38
2022-11-24T09:35:52.394Z,5.32
2022-11-24T09:38:38.992Z,5.25
2022-11-24T09:41:41.691Z,4.63
2022-11-24T09:45:04.728Z,5.22
2022-11-24T09:47:59.178Z,5.72
2022-11-24T09:50:48.324Z,5.93
2022-11-24T09:53:42.379Z,6.05
2022-11-24T09:56:31.288Z,6.45
2022-11-24T09:59:20.577Z,6.60
2022-11-24T10:02:12.511Z,6.55
2022-11-24T10:04:58.566Z,6.03
2022-11-24T10:07:55.369Z,6.65
2022-11-24T10:11:13.457Z,6.28
2022-11-24T10:14:07.884Z,7.35
2022-11-24T10:17:05.108Z,8.63
2022-11-24T10:19:57.972Z,7.07
2022-11-24T10:22:50.358Z,8.50
2022-11-24T10:25:56.196Z,6.35
2022-11-24T10:28:55.352Z,6.13
2022-11-24T10:31:43.638Z,6.65
2022-11-24T10:34:34.564Z,8.45
2022-11-24T10:37:36.657Z,8.82
2022-11-24T10:40:57.048Z,7.18
2022-11-24T10:43:43.357Z,9.20
2022-11-24T10:46:31.566Z,7.25
2022-11-24T10:49:25.425Z,8.27
2022-11-24T10:52:16.410Z,7.55
2022-11-24T10:55:04.462Z,8.27
2022-11-24T10:57:50.171Z,8.65
2022-11-24T11:00:36.688Z,8.20
2022-11-24T11:03:33.179Z,5.57
2022-11-24T11:06:24.971Z,7.53
2022-11-24T11:09:14.432Z,7.60
2022-11-24T11:12:42.125Z,5.35
2022-11-24T11:15:29.869Z,6.50
2022-11-24T11:18:19.168Z,5.97
2022-11-24T11:21:05.613Z,7.90
2022-11-24T11:23:52.094Z,5.43
2022-11-24T11:26:39.355Z,5.68
2022-11-24T11:35:38.426Z,7.15
2022-11-24T11:38:26.533Z,5.03
2022-11-24T11:41:24.132Z,5.15
2022-11-24T11:44:12.387Z,4.15
2022-11-24T11:47:00.992Z,4.93
2022-11-24T11:49:49.273Z,6.53
2022-11-24T11:53:08.338Z,5.57
2022-11-24T11:56:08.581Z,6.40
2022-11-24T11:59:32.993Z,4.40
2022-11-24T12:02:18.290Z,4.63
2022-11-24T12:05:20.632Z,4.03
2022-11-24T12:09:11.606Z,5.15
2022-11-24T12:11:57.571Z,4.68
2022-11-24T12:14:57.343Z,3.65
2022-11-24T12:17:55.737Z,4.40
2022-11-24T12:21:27.638Z,3.88
2022-11-24T12:24:29.094Z,3.72
2022-11-24T12:27:49.462Z,4.70
2022-11-24T12:30:58.904Z,4.85
2022-11-24T12:34:01.787Z,4.38
2022-11-24T12:37:19.975Z,4.82
2022-11-24T12:40:13.192Z,5.07
2022-11-24T12:43:23.007Z,5.10
2022-11-24T12:46:27.203Z,4.80
2022-11-24T12:49:28.755Z,4.43
2022-11-24T12:52:32.405Z,4.60
2022-11-24T12:55:22.203Z,4.30
2022-11-24T12:58:14.552Z,4.43
2022-11-24T13:01:02.713Z,3.65
2022-11-24T13:04:15.936Z,4.38
2022-11-24T13:07:10.234Z,5.45
2022-11-24T13:10:46.600Z,6.75
2022-11-24T13:14:03.449Z,6.53
2022-11-24T13:20:20.930Z,4.43
2022-11-24T13:23:20.818Z,5.00
2022-11-24T13:26:29.405Z,4.95
2022-11-24T13:29:36.096Z,4.85
2022-11-24T13:32:21.560Z,4.72
2022-11-24T13:35:15.609Z,5.30
2022-11-24T13:38:01.267Z,4.43
2022-11-24T13:41:12.975Z,4.05
2022-11-24T13:44:14.858Z,5.65
2022-11-24T13:47:06.197Z,5.15
2022-11-24T13:49:52.520Z,4.28
2022-11-24T13:52:53.204Z,4.85
2022-11-24T13:55:41.186Z,3.72
2022-11-24T13:58:37.837Z,4.03
2022-11-24T14:01:35.480Z,3.55
2022-11-24T14:04:31.418Z,6.72
2022-11-24T14:07:18.105Z,4.30
2022-11-24T14:10:03.871Z,5.30
2022-11-24T14:13:21.337Z,3.55
2022-11-24T14:16:10.497Z,6.72
2022-11-24T14:19:09.978Z,6.15
2022-11-24T14:21:55.213Z,5.68
2022-11-24T14:24:45.238Z,5.28
2022-11-24T14:27:34.374Z,6.03
2022-11-24T14:30:22.684Z,3.75
2022-11-24T14:33:18.468Z,5.10
2022-11-24T14:36:04.409Z,4.65
2022-11-24T14:38:49.562Z,4.70
2022-11-24T14:41:35.043Z,5.35
2022-11-24T14:44:24.632Z,4.00
2022-11-24T14:47:36.302Z,4.68
2022-11-24T14:50:23.651Z,5.20
2022-11-24T14:53:16.517Z,5.15
2022-11-24T14:56:23.478Z,5.13
2022-11-24T14:59:25.700Z,5.15
2022-11-24T15:02:46.134Z,4.25
2022-11-24T15:05:53.199Z,4.80
2022-11-24T15:08:46.837Z,4.20
2022-11-24T15:11:34.899Z,4.63
2022-11-24T15:14:33.436Z,4.10
2022-11-24T15:17:23.471Z,3.90
2022-11-24T15:20:17.414Z,4.63
2022-11-24T15:23:35.208Z,4.72
2022-11-24T15:26:20.370Z,4.32
2022-11-24T15:29:05.958Z,3.92
2022-11-24T15:31:53.002Z,3.22
2022-11-24T15:34:38.521Z,4.43
2022-11-24T15:37:23.989Z,4.07
2022-11-24T15:40:11.558Z,3.60
2022-11-24T15:43:01.952Z,4.60
2022-11-24T15:45:50.637Z,4.60
2022-11-24T15:48:36.314Z,4.30
2022-11-24T15:51:26.088Z,3.97
2022-11-24T15:54:16.919Z,4.97
2022-11-24T15:57:02.691Z,4.47
2022-11-24T15:59:48.072Z,4.32
2022-11-24T16:02:33.588Z,3.22
2022-11-24T16:05:19.067Z,3.33
2022-11-24T16:08:17.361Z,4.53
2022-11-24T16:11:02.681Z,4.65
2022-11-24T16:13:52.321Z,4.65
2022-11-24T16:16:38.620Z,3.28
2022-11-24T16:19:24.453Z,2.63
2022-11-24T16:22:09.820Z,2.50
2022-11-24T16:24:55.421Z,1.65
2022-11-24T16:27:41.243Z,1.60
2022-11-24T16:30:26.382Z,1.75
2022-11-24T16:33:12.099Z,1.73
2022-11-24T16:35:57.291Z,1.88
2022-11-24T16:38:43.612Z,1.27
2022-11-24T16:41:28.973Z,1.35
2022-11-24T16:44:14.438Z,1.20
2022-11-24T16:47:00.088Z,1.90
2022-11-24T16:49:47.138Z,1.45
2022-11-24T16:52:32.631Z,1.30
2022-11-24T16:55:18.218Z,1.00
2022-11-24T16:58:05.146Z,1.30
2022-11-24T17:00:50.845Z,1.33
2022-11-24T17:03:39.744Z,1.05
2022-11-24T17:06:26.830Z,1.05
2022-11-24T17:09:12.437Z,1.40
2022-11-24T17:11:57.807Z,1.52
2022-11-24T17:14:52.679Z,1.52
2022-11-24T17:18:16.296Z,1.67
2022-11-24T17:20:57.902Z,2.33
2022-11-24T17:23:44.114Z,2.47
2022-11-24T17:26:29.427Z,1.90
2022-11-24T17:29:15.171Z,1.63
2022-11-24T17:32:00.754Z,2.05
2022-11-24T17:34:46.246Z,2.30
2022-11-24T17:37:32.400Z,3.20
2022-11-24T17:40:34.362Z,4.70
2022-11-24T17:43:20.070Z,3.75
2022-11-24T17:46:05.912Z,2.33
2022-11-24T17:48:51.591Z,2.03
2022-11-24T17:51:37.137Z,4.55
2022-11-24T17:57:28.129Z,2.75
2022-11-24T18:00:14.078Z,6.15
2022-11-24T18:03:00.417Z,4.43
2022-11-24T18:05:45.937Z,3.60
2022-11-24T18:08:38.563Z,4.18
2022-11-24T18:11:30.915Z,4.13
2022-11-24T18:14:17.345Z,5.00
2022-11-24T18:17:02.789Z,3.75
2022-11-24T18:19:48.400Z,4.70
2022-11-24T18:23:04.030Z,4.57
2022-11-24T18:25:39.971Z,5.57
2022-11-24T18:28:26.137Z,5.25
2022-11-24T18:31:16.439Z,5.00
2022-11-24T18:34:04.248Z,3.72
2022-11-24T18:36:52.141Z,3.90
2022-11-24T18:39:42.015Z,4.60
2022-11-24T18:42:28.740Z,5.30
2022-11-24T18:45:14.055Z,5.15
2022-11-24T18:47:59.452Z,6.20
2022-11-24T18:50:49.290Z,4.68
2022-11-24T18:53:34.621Z,3.53
2022-11-24T18:56:20.247Z,4.70
2022-11-24T18:59:05.692Z,5.88
2022-11-24T19:01:51.894Z,4.13
2022-11-24T19:04:37.348Z,4.18
2022-11-24T19:07:23.353Z,6.20
2022-11-24T19:10:09.826Z,5.57
2022-11-24T19:12:55.986Z,5.22
2022-11-24T19:15:41.666Z,4.57
2022-11-24T19:18:29.646Z,3.88
2022-11-24T19:21:15.319Z,5.93
2022-11-24T19:24:04.865Z,5.85
2022-11-24T19:26:51.312Z,5.43
2022-11-24T19:29:40.387Z,5.13
2022-11-24T19:32:28.196Z,5.45
2022-11-24T19:35:14.086Z,5.13
2022-11-24T19:37:59.648Z,6.32
2022-11-24T19:40:45.190Z,6.05
2022-11-24T19:43:31.516Z,5.07
2022-11-24T19:46:18.691Z,5.18
2022-11-24T19:49:04.656Z,6.05
2022-11-24T19:51:50.311Z,4.75
2022-11-24T19:54:36.183Z,5.47
2022-11-24T19:57:22.034Z,5.50
2022-11-24T20:00:08.029Z,5.78
2022-11-24T20:02:53.687Z,8.02
2022-11-24T20:05:39.077Z,6.20
2022-11-24T20:08:24.624Z,6.97
2022-11-24T20:11:16.434Z,5.05
2022-11-24T20:14:02.184Z,5.88
2022-11-24T20:16:48.472Z,4.45
2022-11-24T20:19:33.797Z,4.95
2022-11-24T20:22:19.373Z,4.93
2022-11-24T20:25:05.119Z,5.78
2022-11-24T20:27:50.523Z,5.75
2022-11-24T20:30:36.027Z,4.90
2022-11-24T20:33:21.638Z,5.88
2022-11-24T20:36:15.816Z,4.38
2022-11-24T20:39:03.811Z,6.00
2022-11-24T20:41:49.467Z,6.53
2022-11-24T20:44:35.335Z,6.25
2022-11-24T20:47:21.480Z,5.20
2022-11-24T20:50:07.110Z,5.55
2022-11-24T20:52:55.320Z,5.53
2022-11-24T20:55:41.053Z,5.60
2022-11-24T20:58:26.690Z,5.13
2022-11-24T21:01:12.032Z,6.20
2022-11-24T21:03:59.521Z,5.35
2022-11-24T21:06:45.902Z,5.35
2022-11-24T21:09:31.220Z,5.68
2022-11-24T21:12:16.736Z,5.03
2022-11-24T21:15:02.299Z,6.25
2022-11-24T21:17:47.893Z,4.72
2022-11-24T21:20:34.271Z,5.55
2022-11-24T21:23:20.641Z,4.95
2022-11-24T21:26:13.043Z,5.65
2022-11-24T21:29:01.907Z,4.72
2022-11-24T21:31:47.385Z,3.80
2022-11-24T21:34:33.187Z,4.55
2022-11-24T21:37:18.860Z,4.72
2022-11-24T21:40:04.971Z,4.43
2022-11-24T21:42:50.273Z,5.30
2022-11-24T21:45:35.705Z,5.35
2022-11-24T21:48:21.316Z,4.18
2022-11-24T21:51:08.419Z,3.80
2022-11-24T21:53:54.025Z,4.35
2022-11-24T21:56:39.320Z,5.22
2022-11-24T21:59:24.784Z,4.60
2022-11-24T22:02:13.384Z,5.13
2022-11-24T22:04:59.291Z,4.47
2022-11-24T22:07:44.896Z,4.45
2022-11-24T22:10:30.504Z,5.38
2022-11-24T22:13:16.547Z,5.15
2022-11-24T22:16:14.172Z,5.07
2022-11-24T22:19:00.225Z,4.35
2022-11-24T22:21:45.775Z,3.85
2022-11-24T22:24:31.363Z,4.05
2022-11-24T22:27:16.916Z,5.22
2022-11-24T22:30:04.844Z,3.78
2022-11-24T22:32:50.429Z,4.70
2022-11-24T22:35:35.835Z,5.05
2022-11-24T22:38:21.363Z,4.43
2022-11-24T22:41:17.354Z,4.38
2022-11-24T22:44:02.940Z,4.38
2022-11-24T22:46:48.410Z,4.70
2022-11-24T22:49:34.256Z,3.42
2022-11-24T22:52:20.006Z,3.95
2022-11-24T22:55:05.649Z,4.53
2022-11-24T22:57:54.499Z,4.85
2022-11-24T23:00:42.280Z,5.35
2022-11-24T23:03:27.710Z,6.20
2022-11-24T23:06:16.053Z,5.18
2022-11-24T23:09:03.855Z,3.63
2022-11-24T23:11:49.592Z,6.18
2022-11-24T23:14:35.200Z,2.97
2022-11-24T23:17:21.027Z,3.90
2022-11-24T23:20:07.423Z,3.60
2022-11-24T23:22:55.349Z,4.45
2022-11-24T23:25:40.568Z,4.40
2022-11-24T23:28:26.074Z,4.70
2022-11-24T23:31:14.935Z,4.35
2022-11-24T23:34:02.585Z,4.32
2022-11-24T23:36:48.189Z,3.90
2022-11-24T23:39:33.940Z,4.72
2022-11-24T23:42:19.357Z,4.45
2022-11-24T23:45:05.840Z,5.68
2022-11-24T23:47:53.705Z,6.10
2022-11-24T23:50:39.223Z,4.78
2022-11-24T23:53:24.660Z,5.07
2022-11-24T23:56:15.453Z,5.63
2022-11-24T23:59:04.788Z,7.28
